Time;durP1;ratioP1;P1;durP2;ratioP2;P2;SDS_P1;SDS_P2;PMS_P1;PMS_P2;Temp;Humidity;BMP_temperature;BMP_pressure;BME280_temperature;BME280_humidity;BME280_pressure;Samples;Min_cycle;Max_cycle;Signal;HPM_P1;HPM_P2
2022/10/23 00:02:23;;;;;;;14.25;10.10;;;;;;;10.95;100.00;101276.78;5056489;28;20020;-63
2022/10/23 00:04:51;;;;;;;10.88;8.82;;;;;;;10.93;100.00;101268.94;5068645;28;20035;-63
2022/10/23 00:07:17;;;;;;;12.25;8.90;;;;;;;10.97;100.00;101269.06;5068416;28;20031;-63
2022/10/23 00:09:43;;;;;;;10.88;8.82;;;;;;;10.99;100.00;101264.81;5068643;28;20024;-63
2022/10/23 00:12:08;;;;;;;10.88;9.23;;;;;;;10.99;100.00;101257.88;5068668;28;20051;-63
2022/10/23 00:14:33;;;;;;;13.90;9.55;;;;;;;11.00;100.00;101259.66;5074801;28;20022;-63
2022/10/23 00:16:59;;;;;;;11.18;9.45;;;;;;;11.02;100.00;101262.31;5065433;28;20028;-64
2022/10/23 00:19:24;;;;;;;11.82;9.35;;;;;;;11.03;100.00;101254.59;5051997;28;20043;-64
2022/10/23 00:21:50;;;;;;;14.52;9.77;;;;;;;11.02;100.00;101255.44;5068910;28;20171;-64
2022/10/23 00:24:15;;;;;;;15.57;9.30;;;;;;;11.04;100.00;101258.94;5068075;28;20032;-64
2022/10/23 00:26:40;;;;;;;14.48;9.07;;;;;;;11.08;100.00;101256.47;5068887;28;20050;-63
2022/10/23 00:29:07;;;;;;;15.85;9.15;;;;;;;11.08;100.00;101257.34;5067911;28;20450;-64
2022/10/23 00:31:33;;;;;;;12.65;9.20;;;;;;;11.11;100.00;101256.59;5062459;28;20033;-65
2022/10/23 00:33:59;;;;;;;18.48;10.05;;;;;;;11.12;100.00;101263.53;5060066;28;20469;-63
2022/10/23 00:36:24;;;;;;;14.65;8.77;;;;;;;11.12;100.00;101254.03;5053567;28;20035;-63
2022/10/23 00:38:50;;;;;;;16.52;8.65;;;;;;;11.13;100.00;101254.94;5068522;28;20031;-63
2022/10/23 00:41:22;;;;;;;14.85;8.75;;;;;;;11.13;100.00;101250.63;5050985;28;20025;-63
2022/10/23 00:44:16;;;;;;;16.42;8.65;;;;;;;11.13;100.00;101253.22;5056539;28;20492;-63
2022/10/23 00:46:41;;;;;;;10.50;8.32;;;;;;;11.13;100.00;101245.44;5058920;28;21367;-63
2022/10/23 00:49:08;;;;;;;14.07;8.48;;;;;;;11.13;100.00;101247.16;5086360;28;20052;-63
2022/10/23 00:51:43;;;;;;;13.52;8.68;;;;;;;11.12;100.00;101242.78;5077896;28;20024;-64
2022/10/23 00:54:11;;;;;;;11.90;7.95;;;;;;;11.10;100.00;101253.09;5084767;28;20055;-63
2022/10/23 00:56:39;;;;;;;10.38;7.80;;;;;;;11.10;100.00;101244.47;5081948;28;20034;-64
2022/10/23 00:59:04;;;;;;;11.38;7.75;;;;;;;11.10;100.00;101244.47;5068035;28;20027;-63
2022/10/23 01:01:30;;;;;;;10.43;7.95;;;;;;;11.10;100.00;101255.69;5068072;28;20028;-64
2022/10/23 01:03:55;;;;;;;9.15;7.65;;;;;;;11.10;100.00;101249.66;5073791;28;20464;-64
2022/10/23 01:06:52;;;;;;;16.42;8.23;;;;;;;11.10;100.00;101239.28;5088362;28;20499;-63
2022/10/23 01:09:39;;;;;;;13.48;8.07;;;;;;;11.11;100.00;101241.03;5087998;28;20265;-64
2022/10/23 01:12:10;;;;;;;10.55;7.90;;;;;;;11.11;100.00;101234.13;5070082;28;20068;-63
2022/10/23 01:14:54;;;;;;;11.75;8.95;;;;;;;11.10;100.00;101237.53;5062788;28;20468;-63
2022/10/23 01:17:19;;;;;;;12.13;8.82;;;;;;;11.12;100.00;101237.59;5061321;28;20031;-63
2022/10/23 01:19:55;;;;;;;13.13;8.20;;;;;;;11.11;100.00;101230.66;5061914;28;20384;-63
2022/10/23 01:22:49;;;;;;;12.68;8.27;;;;;;;11.09;100.00;101228.00;5081429;28;20547;-63
2022/10/23 01:25:54;;;;;;;11.45;7.63;;;;;;;11.08;100.00;101230.53;5073981;28;20033;-64
2022/10/23 01:28:51;;;;;;;12.10;7.55;;;;;;;11.08;100.00;101233.13;5058642;28;20028;-63
2022/10/23 01:31:25;;;;;;;13.40;7.88;;;;;;;11.08;100.00;101225.34;5046833;28;20068;-65
2022/10/23 01:33:57;;;;;;;14.05;7.70;;;;;;;11.05;100.00;101219.22;5061017;28;20025;-65
2022/10/23 01:36:26;;;;;;;9.35;7.43;;;;;;;11.02;100.00;101211.34;5060652;28;20029;-64
2022/10/23 01:38:57;;;;;;;9.68;7.00;;;;;;;10.99;100.00;101208.63;5060476;28;20102;-63
2022/10/23 01:41:33;;;;;;;13.15;7.40;;;;;;;10.96;100.00;101211.09;5073794;28;20031;-63
2022/10/23 01:44:21;;;;;;;10.23;7.38;;;;;;;10.94;100.00;101215.34;5073697;28;20044;-64
2022/10/23 01:46:48;;;;;;;9.75;7.43;;;;;;;10.92;100.00;101209.22;5067177;28;20028;-63
2022/10/23 01:49:14;;;;;;;10.70;6.93;;;;;;;10.89;100.00;101197.03;5053148;28;20358;-63
2022/10/23 01:51:43;;;;;;;9.50;7.13;;;;;;;10.87;100.00;101200.41;5067188;28;20495;-64
2022/10/23 01:54:12;;;;;;;12.02;7.32;;;;;;;10.86;100.00;101196.06;5067699;28;20027;-63
2022/10/23 01:56:41;;;;;;;10.45;7.90;;;;;;;10.85;100.00;101189.97;5085505;28;20028;-63
2022/10/23 01:59:12;;;;;;;9.32;7.18;;;;;;;10.83;100.00;101198.53;5075612;28;20056;-63
2022/10/23 02:01:43;;;;;;;9.18;7.18;;;;;;;10.80;100.00;101195.00;5063234;28;20130;-64
2022/10/23 02:04:12;;;;;;;9.20;7.53;;;;;;;10.78;100.00;101194.06;5055665;28;20024;-64
2022/10/23 02:06:38;;;;;;;10.93;6.65;;;;;;;10.78;100.00;101200.94;5046873;28;20081;-64
2022/10/23 02:09:05;;;;;;;11.60;7.05;;;;;;;10.76;100.00;101197.41;5054797;28;20107;-64
2022/10/23 02:11:36;;;;;;;12.52;7.95;;;;;;;10.75;100.00;101193.06;5068915;28;20044;-63
2022/10/23 02:14:16;;;;;;;12.70;7.63;;;;;;;10.75;100.00;101186.19;5064138;28;20299;-63
2022/10/23 02:16:49;;;;;;;10.82;7.78;;;;;;;10.73;100.00;101198.19;5051177;28;20465;-63
2022/10/23 02:19:27;;;;;;;9.20;7.20;;;;;;;10.70;100.00;101195.50;5065922;28;20438;-63
2022/10/23 02:22:05;;;;;;;8.40;7.20;;;;;;;10.70;100.00;101174.75;5070561;28;20491;-64
2022/10/23 02:24:33;;;;;;;14.23;7.57;;;;;;;10.72;100.00;101191.22;5059081;28;20530;-64
2022/10/23 02:27:01;;;;;;;13.07;6.93;;;;;;;10.69;100.00;101191.13;5070461;28;20025;-63
2022/10/23 02:29:33;;;;;;;15.48;7.75;;;;;;;10.71;100.00;101188.56;5070386;28;20059;-64
2022/10/23 02:32:00;;;;;;;11.68;7.32;;;;;;;10.69;100.00;101185.94;5069993;28;20016;-64
2022/10/23 02:34:25;;;;;;;12.35;7.40;;;;;;;10.69;100.00;101180.75;5069023;28;20024;-63
2022/10/23 02:36:51;;;;;;;9.25;7.40;;;;;;;10.72;100.00;101170.50;5066413;28;20049;-64
2022/10/23 02:39:16;;;;;;;13.02;7.85;;;;;;;10.74;100.00;101163.66;5070372;28;20024;-63
2022/10/23 02:41:56;;;;;;;9.98;7.70;;;;;;;10.75;100.00;101160.25;5069531;28;20025;-63
2022/10/23 02:44:40;;;;;;;11.32;8.07;;;;;;;10.79;100.00;101153.47;5068833;28;20037;-63
2022/10/23 02:47:30;;;;;;;13.15;8.70;;;;;;;10.81;100.00;101141.47;5069505;28;20048;-63
2022/10/23 02:50:20;;;;;;;10.82;7.22;;;;;;;10.83;100.00;101139.78;5069424;28;20100;-63
2022/10/23 02:52:51;;;;;;;14.15;8.13;;;;;;;10.84;100.00;101122.50;5060932;28;20074;-64
2022/10/23 02:55:22;;;;;;;9.32;7.43;;;;;;;10.84;100.00;101118.22;5072814;28;20027;-63
2022/10/23 02:58:14;;;;;;;10.32;7.68;;;;;;;10.86;100.00;101115.69;5089645;28;20052;-64
2022/10/23 03:00:48;;;;;;;11.60;7.13;;;;;;;10.88;100.00;101103.66;5069682;28;20396;-64
2022/10/23 03:03:22;;;;;;;13.82;8.35;;;;;;;10.90;100.00;101105.47;5055167;28;20036;-64
2022/10/23 03:05:48;;;;;;;18.10;8.35;;;;;;;10.92;100.00;101098.63;5069667;28;20469;-63
2022/10/23 03:08:14;;;;;;;9.60;7.97;;;;;;;10.95;100.00;101095.25;5054338;28;20074;-63
2022/10/23 03:10:40;;;;;;;14.80;9.23;;;;;;;10.99;100.00;101086.75;5069541;28;20032;-64
2022/10/23 03:13:06;;;;;;;10.82;8.70;;;;;;;11.01;100.00;101094.59;5062364;28;20032;-64
2022/10/23 03:15:31;;;;;;;13.40;8.70;;;;;;;11.00;100.00;101080.75;5069475;28;20024;-63
2022/10/23 03:17:57;;;;;;;11.20;8.52;;;;;;;11.00;100.00;101088.53;5064424;28;20394;-63
2022/10/23 03:20:22;;;;;;;11.50;8.70;;;;;;;11.00;100.00;101087.63;5058541;28;20024;-63
2022/10/23 03:22:47;;;;;;;9.05;7.65;;;;;;;11.00;100.00;101083.34;5053473;28;20033;-63
2022/10/23 03:25:13;;;;;;;13.18;8.48;;;;;;;10.98;100.00;101077.22;5069082;28;20401;-63
2022/10/23 03:27:38;;;;;;;12.80;8.10;;;;;;;11.00;100.00;101078.16;5068964;28;20365;-63
2022/10/23 03:30:05;;;;;;;12.73;8.70;;;;;;;11.00;100.00;101072.06;5068669;28;20078;-63
2022/10/23 03:32:30;;;;;;;11.93;9.25;;;;;;;11.01;100.00;101074.72;5069115;28;20477;-63
2022/10/23 03:34:55;;;;;;;12.00;7.90;;;;;;;11.02;100.00;101075.59;5064051;28;20025;-63
2022/10/23 03:37:21;;;;;;;11.60;8.18;;;;;;;11.01;100.00;101066.94;5059030;28;20526;-64
2022/10/23 03:39:46;;;;;;;15.57;8.35;;;;;;;11.02;100.00;101065.22;5066288;28;20306;-63
2022/10/23 03:42:11;;;;;;;9.00;7.40;;;;;;;11.01;100.00;101064.34;5056803;28;20024;-63
2022/10/23 03:44:37;;;;;;;14.57;8.50;;;;;;;10.98;100.00;101053.88;5068327;28;20056;-63
2022/10/23 03:47:02;;;;;;;12.23;8.27;;;;;;;10.97;100.00;101057.31;5068583;28;20035;-64
2022/10/23 03:49:27;;;;;;;12.82;8.50;;;;;;;10.97;100.00;101053.81;5068891;28;20033;-63
2022/10/23 03:51:53;;;;;;;10.82;8.75;;;;;;;10.98;100.00;101058.16;5067957;28;20025;-64
2022/10/23 03:54:23;;;;;;;13.18;8.63;;;;;;;10.98;100.00;101051.28;5068843;28;20488;-63
2022/10/23 03:56:49;;;;;;;13.65;8.52;;;;;;;10.98;100.00;101051.28;5068827;28;20434;-64
2022/10/23 03:59:15;;;;;;;12.07;7.72;;;;;;;11.01;100.00;101047.94;5068591;28;20028;-63
2022/10/23 04:01:40;;;;;;;12.07;8.10;;;;;;;11.02;100.00;101047.97;5067861;28;20064;-64
2022/10/23 04:04:05;;;;;;;8.50;6.40;;;;;;;11.03;100.00;101036.75;5068075;28;20032;-64
2022/10/23 04:06:31;;;;;;;11.65;8.00;;;;;;;11.05;100.00;101034.22;5066640;28;20029;-63
2022/10/23 04:08:57;;;;;;;9.70;7.93;;;;;;;11.07;100.00;101031.66;5055798;28;20492;-64
2022/10/23 04:11:22;;;;;;;12.07;7.45;;;;;;;11.08;100.00;101018.75;5054304;28;20536;-64
2022/10/23 04:13:48;;;;;;;13.85;8.93;;;;;;;11.11;100.00;101012.78;5060773;28;20119;-63
2022/10/23 04:16:13;;;;;;;12.73;7.57;;;;;;;11.12;100.00;101009.34;5063552;28;20417;-63
2022/10/23 04:18:42;;;;;;;11.95;8.23;;;;;;;11.15;100.00;101009.47;5058503;28;20099;-63
2022/10/23 04:21:07;;;;;;;14.35;7.35;;;;;;;11.17;100.00;101013.88;5067926;28;20488;-63
2022/10/23 04:23:33;;;;;;;12.85;8.18;;;;;;;11.19;100.00;101011.31;5067947;28;20066;-63
2022/10/23 04:25:58;;;;;;;12.52;7.20;;;;;;;11.21;100.00;101019.13;5067914;28;20396;-63
2022/10/23 04:28:24;;;;;;;9.98;6.38;;;;;;;11.21;100.00;101017.44;5067465;28;20040;-63
2022/10/23 04:30:49;;;;;;;16.23;8.85;;;;;;;11.21;100.00;101030.41;5068189;28;20036;-64
2022/10/23 04:33:15;;;;;;;13.75;7.10;;;;;;;11.22;100.00;101015.72;5066536;28;20103;-63
2022/10/23 04:35:40;;;;;;;9.63;6.80;;;;;;;11.21;100.00;101014.84;5057742;28;20027;-64
2022/10/23 04:38:05;;;;;;;8.20;6.60;;;;;;;11.20;100.00;101007.00;5063178;28;20048;-63
2022/10/23 04:40:31;;;;;;;8.23;6.43;;;;;;;11.21;100.00;101021.72;5067565;28;20020;-64
2022/10/23 04:42:56;;;;;;;10.75;6.47;;;;;;;11.21;100.00;101013.94;5066302;28;20080;-63
2022/10/23 04:45:21;;;;;;;10.23;6.55;;;;;;;11.22;100.00;101018.31;5061717;28;20029;-63
2022/10/23 04:47:46;;;;;;;10.25;6.75;;;;;;;11.20;100.00;101018.28;5060172;28;20065;-64
2022/10/23 04:50:12;;;;;;;11.05;7.13;;;;;;;11.23;100.00;101012.28;5067547;28;20024;-63
2022/10/23 04:52:37;;;;;;;10.88;7.35;;;;;;;11.23;100.00;101013.19;5068150;28;20044;-63
2022/10/23 04:55:03;;;;;;;10.30;6.53;;;;;;;11.25;100.00;101006.34;5072153;28;20020;-63
2022/10/23 04:57:28;;;;;;;12.85;6.38;;;;;;;11.26;100.00;101005.50;5075769;28;20032;-63
2022/10/23 04:59:53;;;;;;;9.07;6.07;;;;;;;11.27;100.00;101002.09;5053075;28;20021;-64
2022/10/23 05:02:19;;;;;;;10.43;6.90;;;;;;;11.29;100.00;101005.63;5067286;28;20160;-63
2022/10/23 05:04:44;;;;;;;8.70;6.72;;;;;;;11.28;100.00;101003.84;5065651;28;20044;-63
2022/10/23 05:07:09;;;;;;;9.18;6.68;;;;;;;11.27;100.00;100990.81;5047756;28;20055;-63
2022/10/23 05:09:35;;;;;;;10.23;5.85;;;;;;;11.27;100.00;100996.91;5059789;28;20074;-63
2022/10/23 05:12:00;;;;;;;10.35;6.22;;;;;;;11.27;100.00;100994.31;5051581;28;20036;-63
2022/10/23 05:14:25;;;;;;;10.35;5.50;;;;;;;11.28;100.00;100993.47;5067216;28;20047;-64
2022/10/23 05:16:56;;;;;;;8.68;6.03;;;;;;;11.29;100.00;100994.34;5057535;28;20108;-64
2022/10/23 05:19:26;;;;;;;9.10;6.90;;;;;;;11.29;100.00;100990.03;5062911;28;20029;-63
2022/10/23 05:21:54;;;;;;;12.03;5.90;;;;;;;11.31;100.00;100984.00;5067581;28;20115;-63
2022/10/23 05:24:23;;;;;;;10.75;6.55;;;;;;;11.31;100.00;100976.22;5066892;28;20283;-64
2022/10/23 05:26:51;;;;;;;13.00;5.72;;;;;;;11.33;100.00;100978.06;5067042;28;20029;-64
2022/10/23 05:29:20;;;;;;;9.02;6.18;;;;;;;11.34;100.00;100976.31;5066973;28;20383;-63
2022/10/23 05:31:49;;;;;;;9.07;5.15;;;;;;;11.35;100.00;100975.50;5053395;28;20064;-63
2022/10/23 05:34:17;;;;;;;9.35;6.07;;;;;;;11.36;100.00;100974.66;5065678;28;20518;-63
2022/10/23 05:36:43;;;;;;;9.73;5.53;;;;;;;11.38;100.00;100975.59;5051693;28;20504;-63
2022/10/23 05:39:08;;;;;;;14.23;6.50;;;;;;;11.37;100.00;100969.50;5064515;28;20125;-64
2022/10/23 05:41:34;;;;;;;7.80;5.93;;;;;;;11.38;100.00;100975.59;5066147;28;20050;-63
2022/10/23 05:43:59;;;;;;;12.75;6.72;;;;;;;11.39;100.00;100972.16;5062863;28;20086;-63
2022/10/23 05:46:26;;;;;;;10.75;5.82;;;;;;;11.38;100.00;100970.41;5056803;28;20028;-63
2022/10/23 05:48:52;;;;;;;7.55;5.78;;;;;;;11.37;100.00;100968.66;5066087;28;20033;-64
2022/10/23 05:51:21;;;;;;;9.73;5.65;;;;;;;11.37;100.00;100964.31;5064659;28;20036;-63
2022/10/23 05:53:50;;;;;;;7.00;5.60;;;;;;;11.37;100.00;100958.28;5066736;28;20535;-63
2022/10/23 05:56:16;;;;;;;9.00;5.93;;;;;;;11.38;100.00;100960.03;5080397;28;20047;-64
2022/10/23 05:58:42;;;;;;;14.07;6.13;;;;;;;11.37;100.00;100966.91;5050164;28;20563;-63
2022/10/23 06:01:09;;;;;;;10.20;6.00;;;;;;;11.37;100.00;100958.28;5059623;28;20021;-63
2022/10/23 06:03:35;;;;;;;6.53;4.85;;;;;;;11.37;100.00;100959.13;5066197;28;20081;-64
2022/10/23 06:06:01;;;;;;;7.70;5.70;;;;;;;11.36;100.00;100951.31;5047473;28;20039;-64
2022/10/23 06:08:26;;;;;;;10.00;5.57;;;;;;;11.36;100.00;100953.91;5049155;28;20462;-64
2022/10/23 06:10:51;;;;;;;7.55;5.82;;;;;;;11.37;100.00;100951.34;5065480;28;20578;-64
2022/10/23 06:13:17;;;;;;;10.98;5.80;;;;;;;11.37;100.00;100950.50;5065237;28;20081;-63
2022/10/23 06:15:42;;;;;;;10.15;5.63;;;;;;;11.37;100.00;100948.75;5064137;28;20032;-64
2022/10/23 06:18:08;;;;;;;10.07;5.45;;;;;;;11.39;100.00;100946.19;5065067;28;20407;-63
2022/10/23 06:20:39;;;;;;;9.65;5.35;;;;;;;11.39;100.00;100946.19;5052250;28;20017;-63
2022/10/23 06:23:05;;;;;;;6.70;5.13;;;;;;;11.39;100.00;100944.50;5063193;28;20047;-64
2022/10/23 06:25:31;;;;;;;8.18;6.10;;;;;;;11.39;100.00;100946.19;5063697;28;20076;-64
2022/10/23 06:27:56;;;;;;;10.20;6.13;;;;;;;11.40;100.00;100941.06;5046853;28;20068;-64
2022/10/23 06:30:22;;;;;;;8.45;5.25;;;;;;;11.43;100.00;100947.19;5054374;28;20033;-63
2022/10/23 06:32:47;;;;;;;8.07;5.20;;;;;;;11.44;100.00;100939.44;5049527;28;20052;-63
2022/10/23 06:35:13;;;;;;;12.65;5.72;;;;;;;11.45;100.00;100933.44;5049747;28;20074;-63
2022/10/23 06:37:38;;;;;;;8.40;5.63;;;;;;;11.48;100.00;100933.50;5046446;28;20056;-63
2022/10/23 06:40:04;;;;;;;9.60;5.22;;;;;;;11.50;100.00;100925.78;5049139;28;20033;-64
2022/10/23 06:42:30;;;;;;;11.57;6.53;;;;;;;11.53;100.00;100920.69;5047671;28;20055;-64
2022/10/23 06:44:56;;;;;;;11.18;5.65;;;;;;;11.55;100.00;100920.72;5046876;28;20587;-64
2022/10/23 06:47:21;;;;;;;8.80;4.82;;;;;;;11.56;100.00;100917.28;5046316;28;20155;-64
2022/10/23 06:49:46;;;;;;;16.08;6.25;;;;;;;11.59;100.00;100907.00;5046032;28;20412;-64
2022/10/23 06:52:11;;;;;;;7.75;5.45;;;;;;;11.60;100.00;100904.44;5060543;28;20036;-64
2022/10/23 06:54:37;;;;;;;10.23;5.35;;;;;;;11.63;100.00;100903.66;5067990;28;20016;-63
2022/10/23 06:57:03;;;;;;;12.48;6.55;;;;;;;11.64;100.00;100905.41;5082709;28;20025;-64
2022/10/23 06:59:29;;;;;;;8.20;5.18;;;;;;;11.65;100.00;100902.00;5054181;28;20420;-64
2022/10/23 07:01:54;;;;;;;9.05;6.03;;;;;;;11.67;100.00;100905.50;5052279;28;20033;-64
2022/10/23 07:04:19;;;;;;;6.03;4.78;;;;;;;11.69;100.00;100905.56;5050738;28;20045;-64
2022/10/23 07:06:45;;;;;;;8.70;5.35;;;;;;;11.72;100.00;100903.03;5054741;28;20024;-64
2022/10/23 07:09:10;;;;;;;8.88;5.80;;;;;;;11.73;100.00;100908.28;5049604;28;20086;-63
2022/10/23 07:11:36;;;;;;;8.10;5.07;;;;;;;11.75;100.00;100906.59;5049678;28;20028;-64
2022/10/23 07:14:01;;;;;;;10.50;5.57;;;;;;;11.79;100.00;100914.47;5051451;28;20366;-64
2022/10/23 07:16:26;;;;;;;9.02;5.43;;;;;;;11.79;100.00;100899.78;5056062;28;20108;-64
2022/10/23 07:18:59;;;;;;;9.13;6.28;;;;;;;11.83;100.00;100905.94;5059323;28;20074;-64
2022/10/23 07:21:27;;;;;;;10.23;5.57;;;;;;;11.85;100.00;100899.06;5054833;28;20062;-64
2022/10/23 07:23:52;;;;;;;10.75;5.55;;;;;;;11.86;100.00;100898.22;5049359;28;20032;-64
2022/10/23 07:26:18;;;;;;;9.52;5.88;;;;;;;11.89;100.00;100890.53;5054119;28;20016;-64
2022/10/23 07:28:45;;;;;;;9.20;5.93;;;;;;;11.91;100.00;100887.97;5053132;28;20544;-64
2022/10/23 07:31:10;;;;;;;8.02;5.78;;;;;;;11.92;100.00;100888.03;5052526;28;20032;-63
2022/10/23 07:33:36;;;;;;;10.13;5.70;;;;;;;11.94;100.00;100885.47;5052171;28;20035;-64
2022/10/23 07:36:09;;;;;;;8.55;6.20;;;;;;;11.96;100.00;100884.66;5048912;28;20024;-64
2022/10/23 07:38:34;;;;;;;8.30;5.85;;;;;;;11.99;100.00;100882.16;5050973;28;20047;-63
2022/10/23 07:41:00;;;;;;;7.45;5.85;;;;;;;12.01;100.00;100885.69;5051239;28;20028;-63
2022/10/23 07:43:25;;;;;;;8.82;5.97;;;;;;;12.04;100.00;100882.28;5053299;28;20145;-63
2022/10/23 07:45:51;;;;;;;10.30;6.60;;;;;;;12.06;100.00;100874.50;5050061;28;20036;-64
2022/10/23 07:48:18;;;;;;;12.30;6.25;;;;;;;12.08;100.00;100880.63;5051599;28;20461;-64
2022/10/23 07:50:43;;;;;;;9.43;6.00;;;;;;;12.11;100.00;100876.44;5049336;28;20070;-63
2022/10/23 07:53:21;;;;;;;8.18;6.00;;;;;;;12.13;100.00;100868.69;5053051;28;20396;-64
2022/10/23 07:55:58;;;;;;;9.00;6.15;;;;;;;12.17;100.00;100870.53;5051309;28;20104;-64
2022/10/23 07:58:24;;;;;;;9.90;5.47;;;;;;;12.19;100.00;100868.84;5050538;28;20024;-64
2022/10/23 08:00:57;;;;;;;8.30;5.95;;;;;;;12.21;100.00;100869.78;5047433;28;20073;-64
2022/10/23 08:03:28;;;;;;;8.80;6.00;;;;;;;12.25;100.00;100868.09;5052019;28;20024;-64
2022/10/23 08:05:55;;;;;;;11.10;7.00;;;;;;;12.28;100.00;100877.72;5048884;28;20032;-64
2022/10/23 08:08:22;;;;;;;8.18;5.28;;;;;;;12.31;100.00;100867.38;5047991;28;20070;-64
2022/10/23 08:10:48;;;;;;;10.93;6.55;;;;;;;12.35;100.00;100871.84;5057093;28;20032;-64
2022/10/23 08:13:14;;;;;;;9.82;6.18;;;;;;;12.38;100.00;100871.91;5050309;28;20027;-64
2022/10/23 08:15:40;;;;;;;9.65;5.93;;;;;;;12.43;100.00;100866.84;5052142;28;20021;-63
2022/10/23 08:18:06;;;;;;;12.95;6.60;;;;;;;12.47;100.00;100863.44;5048615;28;20042;-64
2022/10/23 08:20:33;;;;;;;10.35;6.32;;;;;;;12.51;100.00;100870.50;5048187;28;20031;-63
2022/10/23 08:22:58;;;;;;;8.52;6.30;;;;;;;12.57;100.00;100873.25;5050788;28;20056;-63
2022/10/23 08:25:23;;;;;;;10.63;6.72;;;;;;;12.61;100.00;100871.56;5067930;28;20060;-64
2022/10/23 08:27:49;;;;;;;9.00;5.20;;;;;;;12.65;100.00;100872.53;5067121;28;20036;-63
2022/10/23 08:30:14;;;;;;;12.27;5.82;;;;;;;12.69;100.00;100867.47;5066676;28;20326;-64
2022/10/23 08:32:39;;;;;;;10.93;6.85;;;;;;;12.74;100.00;100857.16;5060002;28;20029;-64
2022/10/23 08:35:05;;;;;;;10.18;6.75;;;;;;;12.80;100.00;100856.44;5052824;28;20031;-64
2022/10/23 08:37:30;;;;;;;10.07;6.32;;;;;;;12.84;100.00;100853.06;5059746;28;20473;-64
2022/10/23 08:39:56;;;;;;;8.15;5.82;;;;;;;12.87;100.00;100854.84;5065790;28;20052;-64
2022/10/23 08:42:24;;;;;;;9.23;6.68;;;;;;;12.90;100.00;100847.13;5050439;28;20024;-63
2022/10/23 08:45:11;;;;;;;7.55;5.70;;;;;;;12.90;100.00;100837.59;5050952;28;20057;-64
2022/10/23 08:47:53;;;;;;;8.55;5.60;;;;;;;12.92;100.00;100829.81;5048982;28;20376;-64
2022/10/23 08:50:26;;;;;;;11.23;6.38;;;;;;;12.94;100.00;100833.31;5049956;28;20036;-64
2022/10/23 08:53:14;;;;;;;7.18;5.20;;;;;;;12.97;100.00;100833.38;5048831;28;20028;-64
2022/10/23 08:55:44;;;;;;;8.35;6.22;;;;;;;12.99;100.00;100833.44;5052189;28;20057;-64
2022/10/23 08:58:14;;;;;;;8.38;5.75;;;;;;;13.00;100.00;100830.88;5048717;28;20032;-64
2022/10/23 09:00:41;;;;;;;7.22;5.18;;;;;;;13.05;100.00;100823.16;5047407;28;20028;-64
2022/10/23 09:03:10;;;;;;;6.35;5.55;;;;;;;13.08;100.00;100828.41;5051381;28;20182;-64
2022/10/23 09:06:08;;;;;;;6.35;5.70;;;;;;;13.11;100.00;100822.41;5047568;28;20573;-65
2022/10/23 09:08:55;;;;;;;8.77;5.57;;;;;;;13.14;100.00;100810.34;5047696;28;20584;-64
2022/10/23 09:11:42;;;;;;;7.68;5.00;;;;;;;13.16;100.00;100808.66;5050364;28;20028;-64
2022/10/23 09:14:23;;;;;;;7.15;5.15;;;;;;;13.18;100.00;100796.56;5047837;28;20512;-64
2022/10/23 09:17:07;;;;;;;7.53;5.30;;;;;;;13.21;100.00;100807.03;5048763;28;20556;-63
2022/10/23 09:19:32;;;;;;;7.53;5.50;;;;;;;13.26;100.00;100798.47;5048711;28;20362;-64
2022/10/23 09:21:58;;;;;;;8.15;5.53;;;;;;;13.30;100.00;100797.66;5049329;28;20066;-63
2022/10/23 09:24:30;;;;;;;9.50;5.60;;;;;;;13.35;100.00;100800.38;5064661;28;20031;-64
2022/10/23 09:26:56;;;;;;;7.85;5.10;;;;;;;13.38;100.00;100796.09;5056098;28;20041;-64
2022/10/23 09:29:34;;;;;;;8.90;5.15;;;;;;;13.42;100.00;100779.69;5061339;28;20036;-64
2022/10/23 09:32:02;;;;;;;7.75;5.72;;;;;;;13.45;100.00;100784.06;5056392;28;20441;-65
2022/10/23 09:34:33;;;;;;;6.32;5.22;;;;;;;13.48;100.00;100786.72;5050505;28;20457;-64
2022/10/23 09:37:01;;;;;;;9.35;5.57;;;;;;;13.51;100.00;100778.97;5057297;28;20031;-64
2022/10/23 09:39:32;;;;;;;7.22;5.28;;;;;;;13.52;100.00;100774.66;5052915;28;20044;-64
2022/10/23 09:42:01;;;;;;;6.38;5.13;;;;;;;13.53;100.00;100760.81;5052810;28;20021;-64
2022/10/23 09:44:29;;;;;;;7.43;5.18;;;;;;;13.56;100.00;100755.69;5059352;28;20087;-63
2022/10/23 09:47:00;;;;;;;9.75;4.88;;;;;;;13.60;100.00;100762.69;5055779;28;20094;-64
2022/10/23 09:49:28;;;;;;;6.73;5.97;;;;;;;13.61;100.00;100759.25;5069519;28;20082;-64
2022/10/23 09:52:03;;;;;;;9.48;5.07;;;;;;;13.64;100.00;100755.78;5059996;28;20279;-64
2022/10/23 09:54:36;;;;;;;6.57;5.47;;;;;;;13.66;100.00;100757.59;5055568;28;20098;-64
2022/10/23 09:57:37;;;;;;;6.35;5.03;;;;;;;13.69;100.00;100757.63;5070007;28;20024;-64
2022/10/23 10:00:24;;;;;;;9.10;5.32;;;;;;;13.72;100.00;100750.75;5046048;28;20474;-64
2022/10/23 10:03:01;;;;;;;10.43;6.03;;;;;;;13.75;100.00;100742.97;5059348;28;20427;-65
2022/10/23 10:05:33;;;;;;;11.40;6.30;;;;;;;13.80;100.00;100739.59;5055625;28;20033;-64
2022/10/23 10:08:16;;;;;;;10.90;5.70;;;;;;;13.84;100.00;100724.91;5065745;28;20590;-65
2022/10/23 10:10:59;;;;;;;10.30;4.80;;;;;;;13.89;100.00;100725.84;5056740;28;20036;-64
2022/10/23 10:13:42;;;;;;;6.38;4.22;;;;;;;13.93;100.00;100718.97;5065625;28;20025;-65
2022/10/23 10:16:32;;;;;;;7.70;4.75;;;;;;;13.96;100.00;100712.94;5066383;28;20028;-65
2022/10/23 10:19:21;;;;;;;9.85;4.15;;;;;;;13.99;100.00;100703.44;5053545;28;20222;-65
2022/10/23 10:22:10;;;;;;;5.70;3.58;;;;;;;14.02;100.00;100697.41;5059032;28;20494;-65
2022/10/23 10:24:46;;;;;;;4.78;3.40;;;;;;;14.04;100.00;100703.50;5056710;28;20049;-64
2022/10/23 10:27:29;;;;;;;6.78;3.65;;;;;;;14.06;100.00;100688.78;5057443;28;20115;-65
2022/10/23 10:30:15;;;;;;;4.65;3.78;;;;;;;14.09;100.00;100694.03;5065384;28;20121;-64
2022/10/23 10:32:58;;;;;;;4.68;3.70;;;;;;;14.12;100.00;100694.06;5067001;28;20574;-65
2022/10/23 10:35:44;;;;;;;8.55;3.83;;;;;;;14.14;100.00;100696.69;5063813;28;20528;-65
2022/10/23 10:38:33;;;;;;;7.85;3.70;;;;;;;14.19;100.00;100704.59;5066741;28;20490;-65
2022/10/23 10:41:20;;;;;;;5.50;3.50;;;;;;;14.25;100.00;100702.06;5052465;28;20468;-65
2022/10/23 10:44:10;;;;;;;10.23;3.47;;;;;;;14.28;100.00;100694.31;5051103;28;20041;-65
2022/10/23 10:47:00;;;;;;;5.70;3.60;;;;;;;14.37;100.00;100688.34;5066495;28;20032;-65
2022/10/23 10:49:34;;;;;;;5.93;3.88;;;;;;;14.45;100.00;100680.63;5069387;28;20030;-65
2022/10/23 10:52:24;;;;;;;5.22;3.33;;;;;;;14.53;100.00;100669.44;5074505;28;20028;-65
2022/10/23 10:55:11;;;;;;;5.20;3.72;;;;;;;14.62;100.00;100663.50;5073418;28;20464;-65
2022/10/23 10:57:42;;;;;;;6.22;3.35;;;;;;;14.74;100.00;100661.88;5068145;28;20033;-65
2022/10/23 11:00:19;;;;;;;7.10;3.47;;;;;;;14.85;100.00;100660.31;5067702;28;20111;-65
2022/10/23 11:02:57;;;;;;;7.63;3.80;;;;;;;14.93;100.00;100652.53;5062410;28;20282;-64
2022/10/23 11:05:37;;;;;;;5.05;3.40;;;;;;;15.03;100.00;100650.03;5064627;28;20071;-65
2022/10/23 11:08:16;;;;;;;7.82;3.42;;;;;;;15.12;100.00;100661.47;5058040;28;20032;-65
2022/10/23 11:10:46;;;;;;;6.15;3.17;;;;;;;15.20;100.00;100655.44;5065311;28;20506;-65
2022/10/23 11:13:32;;;;;;;5.60;3.67;;;;;;;15.25;100.00;100649.38;5067684;28;20028;-65
2022/10/23 11:16:03;;;;;;;7.22;3.10;;;;;;;15.32;100.00;100657.28;5066211;28;20033;-64
2022/10/23 11:18:31;;;;;;;5.50;2.67;;;;;;;15.37;100.00;100637.31;5048738;28;20116;-64
2022/10/23 11:20:56;;;;;;;5.65;3.08;;;;;;;15.41;100.00;100640.84;5062523;28;20036;-64
2022/10/23 11:23:23;;;;;;;4.03;2.90;;;;;;;15.45;100.00;100650.47;5067220;28;20032;-65
2022/10/23 11:26:25;;;;;;;4.18;2.92;;;;;;;15.52;100.00;100639.19;5067290;28;20484;-64
2022/10/23 11:29:39;;;;;;;5.70;3.20;;;;;;;15.59;100.00;100630.56;5057811;28;20484;-65